createdAt,value
2023-01-19T00:00:51.478Z,0.22
2023-01-19T00:03:18.562Z,0.18
2023-01-19T00:05:45.414Z,0.22
2023-01-19T00:08:15.602Z,0.22
2023-01-19T00:10:44.451Z,0.15
2023-01-19T00:13:11.741Z,0.18
2023-01-19T00:15:38.364Z,0.25
2023-01-19T00:18:09.691Z,0.28
2023-01-19T00:20:37.365Z,0.25
2023-01-19T00:23:05.013Z,0.28
2023-01-19T00:25:31.697Z,0.38
2023-01-19T00:28:00.591Z,0.42
2023-01-19T00:30:28.449Z,0.37
2023-01-19T00:32:55.058Z,0.39
2023-01-19T00:35:21.588Z,0.45
2023-01-19T00:37:48.198Z,0.42
2023-01-19T00:40:15.109Z,0.50
2023-01-19T00:42:44.414Z,0.50
2023-01-19T00:45:14.485Z,0.44
2023-01-19T00:47:41.417Z,0.46
2023-01-19T00:50:11.697Z,0.34
2023-01-19T00:52:40.782Z,0.35
2023-01-19T00:55:08.966Z,0.34
2023-01-19T01:01:45.166Z,0.38
2023-01-19T01:04:13.770Z,0.41
2023-01-19T01:06:40.311Z,0.48
2023-01-19T01:09:12.021Z,0.46
2023-01-19T01:11:40.037Z,0.50
2023-01-19T01:14:06.853Z,0.45
2023-01-19T01:16:33.457Z,0.44
2023-01-19T01:19:00.252Z,0.44
2023-01-19T01:21:26.775Z,0.44
2023-01-19T01:23:53.226Z,0.41
2023-01-19T01:26:19.683Z,0.39
2023-01-19T01:28:46.313Z,0.38
2023-01-19T01:31:13.202Z,0.35
2023-01-19T01:33:42.019Z,0.42
2023-01-19T01:36:10.532Z,0.53
2023-01-19T01:38:38.199Z,0.62
2023-01-19T01:41:04.894Z,0.59
2023-01-19T01:43:49.369Z,0.65
2023-01-19T01:46:17.656Z,0.68
2023-01-19T01:49:10.619Z,0.68
2023-01-19T01:51:42.442Z,0.76
2023-01-19T01:54:16.620Z,0.62
2023-01-19T01:56:46.474Z,0.60
2023-01-19T01:59:25.797Z,0.59
2023-01-19T02:02:22.800Z,0.60
2023-01-19T02:04:53.882Z,0.69
2023-01-19T02:07:50.114Z,0.76
2023-01-19T02:10:35.849Z,0.75
2023-01-19T02:13:21.674Z,0.76
2023-01-19T02:15:49.934Z,0.77
2023-01-19T02:18:17.018Z,0.75
2023-01-19T02:21:07.910Z,0.76
2023-01-19T02:23:38.942Z,0.79
2023-01-19T02:26:07.363Z,0.75
2023-01-19T02:28:34.265Z,0.75
2023-01-19T02:31:00.781Z,0.65
2023-01-19T02:33:27.464Z,0.66
2023-01-19T02:35:56.823Z,0.66
2023-01-19T02:38:26.824Z,0.69
2023-01-19T02:40:56.088Z,0.76
2023-01-19T02:43:23.915Z,0.75
2023-01-19T02:45:50.808Z,0.69
2023-01-19T02:48:21.904Z,0.70
2023-01-19T02:50:59.583Z,0.79
2023-01-19T02:53:42.317Z,0.86
2023-01-19T02:56:30.623Z,0.87
2023-01-19T02:59:05.996Z,1.00
2023-01-19T03:02:00.319Z,1.07
2023-01-19T03:05:05.205Z,1.03
2023-01-19T03:08:06.513Z,1.04
2023-01-19T03:10:45.273Z,1.03
2023-01-19T03:13:39.515Z,1.04
2023-01-19T03:16:22.569Z,1.11
2023-01-19T03:19:05.030Z,1.16
2023-01-19T03:21:35.873Z,1.20
2023-01-19T03:24:06.416Z,1.23
2023-01-19T03:26:40.655Z,1.26
2023-01-19T03:29:11.573Z,1.28
2023-01-19T03:31:41.516Z,1.24
2023-01-19T03:34:11.649Z,1.20
2023-01-19T03:36:48.380Z,1.24
2023-01-19T03:39:19.785Z,1.26
2023-01-19T03:41:49.516Z,1.24
2023-01-19T03:44:17.086Z,1.30
2023-01-19T03:46:45.907Z,1.28
2023-01-19T03:49:12.721Z,1.27
2023-01-19T03:51:39.878Z,1.30
2023-01-19T03:54:07.490Z,1.26
2023-01-19T03:56:33.987Z,1.26
2023-01-19T03:59:00.883Z,1.24
2023-01-19T04:01:28.923Z,1.17
2023-01-19T04:03:55.617Z,1.17
2023-01-19T04:06:23.656Z,1.16
2023-01-19T04:08:51.551Z,1.24
2023-01-19T04:11:18.065Z,1.24
2023-01-19T04:13:45.013Z,1.21
2023-01-19T04:16:12.167Z,1.21
2023-01-19T04:18:40.636Z,1.23
2023-01-19T04:21:08.119Z,1.20
2023-01-19T04:23:34.762Z,1.30
2023-01-19T04:26:03.339Z,1.34
2023-01-19T04:28:30.025Z,1.39
2023-01-19T04:30:56.744Z,1.45
2023-01-19T04:33:24.074Z,1.48
2023-01-19T04:35:54.448Z,1.68
2023-01-19T04:38:21.482Z,1.78
2023-01-19T04:40:50.061Z,1.78
2023-01-19T04:43:17.104Z,1.97
2023-01-19T04:45:46.182Z,2.10
2023-01-19T04:48:14.373Z,2.16
2023-01-19T04:50:41.942Z,2.28
2023-01-19T04:53:09.199Z,2.23
2023-01-19T04:55:39.972Z,2.16
2023-01-19T04:58:06.534Z,1.95
2023-01-19T05:00:33.784Z,1.73
2023-01-19T05:03:01.605Z,1.59
2023-01-19T05:05:28.752Z,1.48
2023-01-19T05:07:55.396Z,1.45
2023-01-19T05:10:22.455Z,1.44
2023-01-19T05:12:49.032Z,1.44
2023-01-19T05:15:15.603Z,1.55
2023-01-19T05:17:42.107Z,1.65
2023-01-19T05:20:11.183Z,1.68
2023-01-19T05:22:38.573Z,1.70
2023-01-19T05:25:09.464Z,1.76
2023-01-19T05:27:37.209Z,1.85
2023-01-19T05:30:05.699Z,1.96
2023-01-19T05:32:32.321Z,1.89
2023-01-19T05:34:58.935Z,1.86
2023-01-19T05:37:25.476Z,1.60
2023-01-19T05:39:52.705Z,1.51
2023-01-19T05:42:20.579Z,1.44
2023-01-19T05:44:47.196Z,1.26
2023-01-19T05:47:13.863Z,1.17
2023-01-19T05:49:40.354Z,1.13
2023-01-19T05:52:06.796Z,1.13
2023-01-19T05:54:33.317Z,1.14
2023-01-19T05:56:59.920Z,1.27
2023-01-19T05:59:26.604Z,1.07
2023-01-19T06:01:54.131Z,1.03
2023-01-19T06:04:20.936Z,0.89
2023-01-19T06:06:49.892Z,0.90
2023-01-19T06:09:18.117Z,0.84
2023-01-19T06:11:46.699Z,0.87
2023-01-19T06:14:13.659Z,0.81
2023-01-19T06:16:40.487Z,0.84
2023-01-19T06:19:07.164Z,0.90
2023-01-19T06:21:34.382Z,0.96
2023-01-19T06:24:00.982Z,1.05
2023-01-19T06:26:27.561Z,1.08
2023-01-19T06:28:54.116Z,1.11
2023-01-19T06:31:20.762Z,1.05
2023-01-19T06:33:47.363Z,1.14
2023-01-19T06:36:13.957Z,1.21
2023-01-19T06:38:40.433Z,1.11
2023-01-19T06:41:07.583Z,1.13
2023-01-19T06:43:34.125Z,1.07
2023-01-19T06:46:00.925Z,0.96
2023-01-19T06:48:27.527Z,0.96
2023-01-19T06:50:54.276Z,1.01
2023-01-19T06:53:22.507Z,0.99
2023-01-19T06:55:49.264Z,0.94
2023-01-19T06:58:16.133Z,0.94
2023-01-19T07:00:43.305Z,0.87
2023-01-19T07:03:20.296Z,0.93
2023-01-19T07:08:30.288Z,1.03
2023-01-19T07:11:24.817Z,1.04
2023-01-19T07:13:56.917Z,1.08
2023-01-19T07:16:23.844Z,1.08
2023-01-19T07:18:51.060Z,1.05
2023-01-19T07:21:18.100Z,1.03
2023-01-19T07:23:48.042Z,1.04
2023-01-19T07:26:15.343Z,1.05
2023-01-19T07:28:41.894Z,1.08
2023-01-19T07:33:41.132Z,1.08
2023-01-19T07:36:08.514Z,0.97
2023-01-19T07:38:36.111Z,0.97
2023-01-19T07:41:04.463Z,1.00
2023-01-19T07:43:32.033Z,1.05
2023-01-19T07:46:00.159Z,1.00
2023-01-19T07:48:27.517Z,1.04
2023-01-19T07:50:54.043Z,1.10
2023-01-19T07:53:20.674Z,1.11
2023-01-19T07:55:47.439Z,1.14
2023-01-19T07:58:14.274Z,1.17
2023-01-19T08:00:41.036Z,1.23
2023-01-19T08:03:09.167Z,1.28
2023-01-19T08:05:35.738Z,1.31
2023-01-19T08:08:02.319Z,1.38
2023-01-19T08:10:29.035Z,1.45
2023-01-19T08:12:56.732Z,1.45
2023-01-19T08:15:24.831Z,1.49
2023-01-19T08:17:59.562Z,1.52
2023-01-19T08:20:27.849Z,1.59
2023-01-19T08:23:00.397Z,1.63
2023-01-19T08:25:34.672Z,1.65
2023-01-19T08:28:01.949Z,1.69
2023-01-19T08:30:28.492Z,1.70
2023-01-19T08:32:58.377Z,1.69
2023-01-19T08:35:25.796Z,1.70
2023-01-19T08:37:52.533Z,1.73
2023-01-19T08:40:19.762Z,1.68
2023-01-19T08:42:46.249Z,1.69
2023-01-19T08:45:12.940Z,1.66
2023-01-19T08:47:39.905Z,1.59
2023-01-19T08:50:06.834Z,1.55
2023-01-19T08:52:33.455Z,1.48
2023-01-19T08:55:00.789Z,1.59
2023-01-19T08:57:27.997Z,1.60
2023-01-19T08:59:54.448Z,1.69
2023-01-19T09:02:21.086Z,1.69
2023-01-19T09:04:47.620Z,1.75
2023-01-19T09:07:14.133Z,1.78
2023-01-19T09:09:43.441Z,1.68
2023-01-19T09:12:10.102Z,1.65
2023-01-19T09:14:36.606Z,1.63
2023-01-19T09:17:03.240Z,1.68
2023-01-19T09:19:29.730Z,1.75
2023-01-19T09:21:56.267Z,1.76
2023-01-19T09:24:22.711Z,1.87
2023-01-19T09:26:49.210Z,1.97
2023-01-19T09:29:15.710Z,1.93
2023-01-19T09:31:43.837Z,1.85
2023-01-19T09:34:11.010Z,1.92
2023-01-19T09:36:39.535Z,1.89
2023-01-19T09:39:06.174Z,1.90
2023-01-19T09:41:34.996Z,1.95
2023-01-19T09:44:01.761Z,1.92
2023-01-19T09:46:34.361Z,2.02
2023-01-19T09:49:11.296Z,2.10
2023-01-19T09:51:41.222Z,2.21
2023-01-19T09:54:16.908Z,2.24
2023-01-19T09:56:45.266Z,2.26
2023-01-19T09:59:19.201Z,2.33
2023-01-19T10:01:56.575Z,2.33
2023-01-19T10:04:34.704Z,2.42
2023-01-19T10:07:20.294Z,2.41
2023-01-19T10:10:01.909Z,2.42
2023-01-19T10:12:47.562Z,2.40
2023-01-19T10:15:14.167Z,2.41
2023-01-19T10:17:48.226Z,2.42
2023-01-19T10:20:45.997Z,2.40
2023-01-19T10:23:42.149Z,2.40
2023-01-19T10:26:14.054Z,2.31
2023-01-19T10:28:41.377Z,2.37
2023-01-19T10:31:09.843Z,2.40
2023-01-19T10:33:37.039Z,2.36
2023-01-19T10:36:16.667Z,2.38
2023-01-19T10:38:44.107Z,2.41
2023-01-19T10:41:26.046Z,2.48
2023-01-19T10:44:04.354Z,2.48
2023-01-19T10:46:45.063Z,2.45
2023-01-19T10:49:34.857Z,2.45
2023-01-19T10:52:02.418Z,2.48
2023-01-19T10:54:31.323Z,2.52
2023-01-19T10:57:07.529Z,2.72
2023-01-19T10:59:38.293Z,2.79
2023-01-19T11:02:29.284Z,2.82
2023-01-19T11:05:01.126Z,2.86
2023-01-19T11:07:29.662Z,2.98
2023-01-19T11:10:17.601Z,3.09
2023-01-19T11:13:01.346Z,3.13
2023-01-19T11:15:32.903Z,3.16
2023-01-19T11:17:59.966Z,3.12
2023-01-19T11:20:35.307Z,3.17
2023-01-19T11:23:26.797Z,3.09
2023-01-19T11:25:56.934Z,3.09
2023-01-19T11:28:33.079Z,3.10
2023-01-19T11:31:17.303Z,3.13
2023-01-19T11:33:47.338Z,3.19
2023-01-19T11:36:26.733Z,3.17
2023-01-19T11:38:59.326Z,3.20
2023-01-19T11:41:33.441Z,3.23
2023-01-19T11:44:14.646Z,3.31
2023-01-19T11:46:44.142Z,3.28
2023-01-19T11:49:44.235Z,3.48
2023-01-19T11:52:34.001Z,3.43
2023-01-19T11:55:06.891Z,3.54
2023-01-19T11:57:33.462Z,3.54
2023-01-19T12:00:17.457Z,3.66
2023-01-19T12:02:46.943Z,3.66
2023-01-19T12:05:18.252Z,3.58
2023-01-19T12:07:46.823Z,3.67
2023-01-19T12:10:13.351Z,3.48
2023-01-19T12:12:41.316Z,3.57
2023-01-19T12:15:10.570Z,3.66
2023-01-19T12:17:44.710Z,3.53
2023-01-19T12:20:32.508Z,3.54
2023-01-19T12:23:30.222Z,3.56
2023-01-19T12:26:05.430Z,3.71
2023-01-19T12:28:36.793Z,3.70
2023-01-19T12:31:04.029Z,3.71
2023-01-19T12:33:40.251Z,3.78
2023-01-19T12:36:11.319Z,3.74
2023-01-19T12:38:42.995Z,3.79
2023-01-19T12:41:30.106Z,3.78
2023-01-19T12:44:12.116Z,3.91
2023-01-19T12:46:38.608Z,3.89
2023-01-19T12:49:26.192Z,3.87
2023-01-19T12:52:15.252Z,3.89
2023-01-19T12:55:09.600Z,3.91
2023-01-19T12:57:39.932Z,4.02
2023-01-19T13:00:26.228Z,4.13
2023-01-19T13:02:56.767Z,3.88
2023-01-19T13:05:24.993Z,3.71
2023-01-19T13:08:07.295Z,3.71
2023-01-19T13:10:55.946Z,3.79
2023-01-19T13:13:36.868Z,3.71
2023-01-19T13:16:18.619Z,3.67
2023-01-19T13:18:56.184Z,3.81
2023-01-19T13:21:45.256Z,3.71
2023-01-19T13:24:16.910Z,3.66
2023-01-19T13:26:55.386Z,3.60
2023-01-19T13:29:35.917Z,3.77
2023-01-19T13:32:06.357Z,3.63
2023-01-19T13:35:00.100Z,3.63
2023-01-19T13:37:33.543Z,3.71
2023-01-19T13:40:00.379Z,3.57
2023-01-19T13:42:32.088Z,3.63
2023-01-19T13:45:02.306Z,3.46
2023-01-19T13:47:46.790Z,3.41
2023-01-19T13:50:28.906Z,3.36
2023-01-19T13:52:59.441Z,3.36
2023-01-19T13:55:30.971Z,3.44
2023-01-19T13:57:57.793Z,3.41
2023-01-19T14:00:30.821Z,3.43
2023-01-19T14:03:02.792Z,3.33
2023-01-19T14:05:37.944Z,3.20
2023-01-19T14:08:13.490Z,2.96
2023-01-19T14:10:46.226Z,2.89
2023-01-19T14:13:33.226Z,2.96
2023-01-19T14:16:05.756Z,2.96
2023-01-19T14:18:34.507Z,3.03
2023-01-19T14:21:02.846Z,3.09
2023-01-19T14:23:35.338Z,3.16
2023-01-19T14:26:01.820Z,3.20
2023-01-19T14:28:40.464Z,3.30
2023-01-19T14:31:21.340Z,3.38
2023-01-19T14:33:50.509Z,3.38
2023-01-19T14:36:17.985Z,3.41
2023-01-19T14:38:49.803Z,3.44
2023-01-19T14:41:35.108Z,3.44
2023-01-19T14:44:03.225Z,3.47
2023-01-19T14:46:30.084Z,3.51
2023-01-19T14:49:02.335Z,3.50
2023-01-19T14:51:30.120Z,3.50
2023-01-19T14:53:59.057Z,3.47
2023-01-19T14:56:31.372Z,3.34
2023-01-19T14:58:59.437Z,3.30
2023-01-19T15:01:31.433Z,3.02
2023-01-19T15:03:58.346Z,2.48
2023-01-19T15:06:26.342Z,2.28
2023-01-19T15:08:56.151Z,2.24
2023-01-19T15:11:27.394Z,2.26
2023-01-19T15:13:55.401Z,2.31
2023-01-19T15:16:22.832Z,2.23
2023-01-19T15:18:49.461Z,2.33
2023-01-19T15:21:23.250Z,2.36
2023-01-19T15:23:50.466Z,2.31
2023-01-19T15:26:19.408Z,2.34
2023-01-19T15:28:47.093Z,2.36
2023-01-19T15:31:19.054Z,2.27
2023-01-19T15:33:46.015Z,2.37
2023-01-19T15:36:15.282Z,2.34
2023-01-19T15:38:43.685Z,2.40
2023-01-19T15:41:23.554Z,2.49
2023-01-19T15:43:50.703Z,2.55
2023-01-19T15:46:20.645Z,2.65
2023-01-19T15:48:48.407Z,2.75
2023-01-19T15:51:16.785Z,2.84
2023-01-19T15:53:43.957Z,2.85
2023-01-19T15:56:14.865Z,2.88
2023-01-19T15:58:41.615Z,2.92
2023-01-19T16:01:13.061Z,2.95
2023-01-19T16:03:40.003Z,2.99
2023-01-19T16:06:08.539Z,3.00
2023-01-19T16:08:36.207Z,3.02
2023-01-19T16:11:08.119Z,3.09
2023-01-19T16:13:34.639Z,3.02
2023-01-19T16:16:03.357Z,3.00
2023-01-19T16:18:30.391Z,3.03
2023-01-19T16:20:57.090Z,3.10
2023-01-19T16:23:23.599Z,3.15
2023-01-19T16:26:03.904Z,3.17
2023-01-19T16:28:31.283Z,3.13
2023-01-19T16:30:57.947Z,3.10
2023-01-19T16:33:25.463Z,3.07
2023-01-19T16:35:52.648Z,3.10
2023-01-19T16:38:19.738Z,3.19
2023-01-19T16:40:46.420Z,3.17
2023-01-19T16:43:14.606Z,3.24
2023-01-19T16:46:00.169Z,3.15
2023-01-19T16:48:27.562Z,3.13
2023-01-19T16:51:06.937Z,3.06
2023-01-19T16:53:35.318Z,3.15
2023-01-19T16:56:10.172Z,3.07
2023-01-19T16:58:38.383Z,2.99
2023-01-19T17:01:12.932Z,2.98
2023-01-19T17:03:39.925Z,2.88
2023-01-19T17:06:08.837Z,2.86
2023-01-19T17:08:36.214Z,2.85
2023-01-19T17:11:10.617Z,2.86
2023-01-19T17:13:37.444Z,2.69
2023-01-19T17:16:05.272Z,2.78
2023-01-19T17:18:35.701Z,2.65
2023-01-19T17:21:03.817Z,2.61
2023-01-19T17:23:31.341Z,2.74
2023-01-19T17:25:59.087Z,2.81
2023-01-19T17:28:26.486Z,2.84
2023-01-19T17:30:53.576Z,2.86
2023-01-19T17:33:24.737Z,2.89
2023-01-19T17:35:51.323Z,3.07
2023-01-19T17:38:17.840Z,3.16
2023-01-19T17:40:44.342Z,3.20
2023-01-19T17:43:12.032Z,3.13
2023-01-19T17:45:38.524Z,3.16
2023-01-19T17:48:05.261Z,2.99
2023-01-19T17:50:34.592Z,3.02
2023-01-19T17:53:01.325Z,3.16
2023-01-19T17:55:27.965Z,3.07
2023-01-19T17:57:54.660Z,2.91
2023-01-19T18:00:21.476Z,2.78
2023-01-19T18:02:51.980Z,2.74
2023-01-19T18:05:19.252Z,2.65
2023-01-19T18:07:46.542Z,2.74
2023-01-19T18:10:14.504Z,2.66
2023-01-19T18:12:41.227Z,2.68
2023-01-19T18:15:08.691Z,2.64
2023-01-19T18:17:35.486Z,2.66
2023-01-19T18:20:05.459Z,2.69
2023-01-19T18:22:32.331Z,2.74
2023-01-19T18:24:59.129Z,2.74
2023-01-19T18:27:25.699Z,2.85
2023-01-19T18:29:52.602Z,2.81
2023-01-19T18:32:19.173Z,2.82
2023-01-19T18:34:45.724Z,2.82
2023-01-19T18:37:12.316Z,2.86
2023-01-19T18:39:38.821Z,2.89
2023-01-19T18:42:05.342Z,2.92
2023-01-19T18:44:32.017Z,2.88
2023-01-19T18:46:58.733Z,2.86
2023-01-19T18:49:25.309Z,2.84
2023-01-19T18:51:51.802Z,2.79
2023-01-19T18:57:52.368Z,2.66
2023-01-19T19:00:19.253Z,2.71
2023-01-19T19:02:45.870Z,2.61
2023-01-19T19:05:12.365Z,2.51
2023-01-19T19:07:38.977Z,2.48
2023-01-19T19:10:06.303Z,2.55
2023-01-19T19:12:32.836Z,2.48
2023-01-19T19:14:59.357Z,2.59
2023-01-19T19:17:25.950Z,2.71
2023-01-19T19:19:52.569Z,2.66
2023-01-19T19:22:19.039Z,2.64
2023-01-19T19:24:45.596Z,2.65
2023-01-19T19:27:14.338Z,2.58
2023-01-19T19:29:41.604Z,2.55
2023-01-19T19:32:08.087Z,2.49
2023-01-19T19:34:34.589Z,2.47
2023-01-19T19:37:01.522Z,2.49
2023-01-19T19:39:28.611Z,2.45
2023-01-19T19:41:55.197Z,2.54
2023-01-19T19:44:21.904Z,2.52
2023-01-19T19:46:48.514Z,2.48
2023-01-19T19:49:17.811Z,2.47
2023-01-19T19:51:44.528Z,2.37
2023-01-19T19:54:11.023Z,2.36
2023-01-19T19:56:37.572Z,2.34
2023-01-19T19:59:04.242Z,2.33
2023-01-19T20:01:33.616Z,2.30
2023-01-19T20:04:08.978Z,2.30
2023-01-19T20:06:39.042Z,2.10
2023-01-19T20:09:07.948Z,2.14
2023-01-19T20:11:35.150Z,2.09
2023-01-19T20:14:06.066Z,2.03
2023-01-19T20:16:32.860Z,2.06
2023-01-19T20:18:59.376Z,2.07
2023-01-19T20:21:34.470Z,2.07
2023-01-19T20:24:03.878Z,2.02
2023-01-19T20:26:32.958Z,2.05
2023-01-19T20:29:03.074Z,2.02
2023-01-19T20:31:31.880Z,2.00
2023-01-19T20:34:00.494Z,2.07
2023-01-19T20:36:28.916Z,2.17
2023-01-19T20:38:56.691Z,2.10
2023-01-19T20:41:24.005Z,2.05
2023-01-19T20:43:50.676Z,2.07
2023-01-19T20:46:17.947Z,2.11
2023-01-19T20:48:45.857Z,2.02
2023-01-19T20:51:13.241Z,2.18
2023-01-19T20:53:41.153Z,2.05
2023-01-19T20:56:11.649Z,2.07
2023-01-19T20:58:38.942Z,1.90
2023-01-19T21:01:13.044Z,1.95
2023-01-19T21:03:42.038Z,2.06
2023-01-19T21:06:09.308Z,2.00
2023-01-19T21:08:36.050Z,1.99
2023-01-19T21:11:02.611Z,2.10
2023-01-19T21:13:29.214Z,1.99
2023-01-19T21:15:55.747Z,1.95
2023-01-19T21:18:22.372Z,1.96
2023-01-19T21:20:49.356Z,1.96
2023-01-19T21:23:16.160Z,1.96
2023-01-19T21:25:57.554Z,1.90
2023-01-19T21:28:24.341Z,1.90
2023-01-19T21:30:52.150Z,1.90
2023-01-19T21:33:19.495Z,1.97
2023-01-19T21:35:56.602Z,2.13
2023-01-19T21:38:26.738Z,2.05
2023-01-19T21:40:54.668Z,2.26
2023-01-19T21:43:21.147Z,2.06
2023-01-19T21:45:48.825Z,1.90
2023-01-19T21:48:16.188Z,1.79
2023-01-19T21:50:43.151Z,1.82
2023-01-19T21:53:11.341Z,1.86
2023-01-19T21:55:38.558Z,1.79
2023-01-19T21:58:05.096Z,1.87
2023-01-19T22:00:31.744Z,1.83
2023-01-19T22:03:04.076Z,1.89
2023-01-19T22:05:36.352Z,2.03
2023-01-19T22:08:04.042Z,2.30
2023-01-19T22:10:30.704Z,2.41
2023-01-19T22:12:57.276Z,2.40
2023-01-19T22:15:23.738Z,2.40
2023-01-19T22:17:50.227Z,2.38
2023-01-19T22:20:17.012Z,2.27
2023-01-19T22:22:43.537Z,2.11
2023-01-19T22:25:10.209Z,2.18
2023-01-19T22:27:37.468Z,2.13
2023-01-19T22:30:04.425Z,1.97
2023-01-19T22:32:31.568Z,1.86
2023-01-19T22:34:58.086Z,1.73
2023-01-19T22:37:24.586Z,1.73
2023-01-19T22:39:52.957Z,1.68
2023-01-19T22:42:19.508Z,1.73
2023-01-19T22:44:46.959Z,1.73
2023-01-19T22:47:13.425Z,1.85
2023-01-19T22:49:40.719Z,1.72
2023-01-19T22:52:07.256Z,1.80
2023-01-19T22:54:33.931Z,1.72
2023-01-19T22:57:00.484Z,1.68
2023-01-19T22:59:27.193Z,1.82
2023-01-19T23:01:53.903Z,1.79
2023-01-19T23:04:20.745Z,1.96
2023-01-19T23:06:50.444Z,2.06
2023-01-19T23:09:17.408Z,2.14
2023-01-19T23:11:48.501Z,2.14
2023-01-19T23:14:17.314Z,2.02
2023-01-19T23:16:44.114Z,1.93
2023-01-19T23:19:12.164Z,1.87
2023-01-19T23:21:38.759Z,1.76
2023-01-19T23:24:06.185Z,1.78
2023-01-19T23:26:39.543Z,1.78
2023-01-19T23:29:09.893Z,1.87
2023-01-19T23:31:39.324Z,1.80
2023-01-19T23:34:08.009Z,1.82
2023-01-19T23:36:36.225Z,1.72
2023-01-19T23:39:07.113Z,1.80
2023-01-19T23:41:34.653Z,1.76
2023-01-19T23:44:01.481Z,1.92
2023-01-19T23:46:28.528Z,2.03
2023-01-19T23:48:55.162Z,2.03
2023-01-19T23:51:24.662Z,1.96
2023-01-19T23:53:51.788Z,2.13
2023-01-19T23:56:23.732Z,2.00
2023-01-19T23:58:56.411Z,2.09
